PWSweather.com
Personal Weather Stations
Station Observations
MTCRAWFORD
Saddlebrook Subdivision, Mount Crawford, VA 22841

Saddlebrook SubdivisionMount Crawford, VA 22841

Lat: 38.3625069, Lon: -78.940918

Elevation: 1210

Station Type: OS-WMR968

Latest ConditionsUpdated 1:45:04 AM EDT Sunday, Mar 24, 2019
Currently Today's Max Today's Min Today's Average
Temperature 28.2°F-2.1°C 31.6°F-0.2°C 28.2°F-2.1°C 29.7°F-1.3°C
Dew Point 15.4°F-9.2°C 15.5°F-9.2°C 13.7°F-10.2°C 14.7°F-9.6°C
Winds Calm Calm 3.4 mph -5.5 kmh - - 0.2 mph 0.3 kmh
Wind Gusts -- 3.4 mph5.5 kmh - -
Humidity 58% 58% 50% 53%
Pressure 30.29 in1025.7 mb 30.29 in1025.7 mb 30.29 in1025.7 mb -
Hour Temp Dew Point Humidity Winds Wind Gusts Pressure Precip Precip Rate Daily Precip Total
01:45 AM 28.2°F-2.1°C 15.4°F-9.2°C 58% Calm Calm -- 30.29 in1025.7 mb 0.00 in0.0 mm 0.00 in0.0 mm 0.00 in0.0 mm
01:40 AM 28.2°F-2.1°C 15.4°F-9.2°C 58% Calm Calm -- 30.29 in1025.7 mb 0.00 in0.0 mm 0.00 in0.0 mm 0.00 in0.0 mm
01:35 AM 28.4°F-2.0°C 15.5°F-9.2°C 58% Calm Calm -- 30.29 in1025.7 mb 0.00 in0.0 mm 0.00 in0.0 mm 0.00 in0.0 mm
01:30 AM 28.6°F-1.9°C 15.3°F-9.3°C 57% Calm Calm -- 30.29 in1025.7 mb 0.00 in0.0 mm 0.00 in0.0 mm 0.00 in0.0 mm
01:25 AM 28.8°F-1.8°C 14.7°F-9.6°C 55% Calm Calm -- 30.29 in1025.7 mb 0.00 in0.0 mm 0.00 in0.0 mm 0.00 in0.0 mm
01:20 AM 28.8°F-1.8°C 14.7°F-9.6°C 55% Calm Calm -- 30.29 in1025.7 mb 0.00 in0.0 mm 0.00 in0.0 mm 0.00 in0.0 mm
01:15 AM 28.9°F-1.7°C 14.8°F-9.6°C 55% Calm Calm -- 30.29 in1025.7 mb 0.00 in0.0 mm 0.00 in0.0 mm 0.00 in0.0 mm
01:10 AM 29.1°F-1.6°C 15.0°F-9.4°C 55% Calm Calm -- 30.29 in1025.7 mb 0.00 in0.0 mm 0.00 in0.0 mm 0.00 in0.0 mm
01:05 AM 29.5°F-1.4°C 15.3°F-9.3°C 55% Calm Calm -- 30.29 in1025.7 mb 0.00 in0.0 mm 0.00 in0.0 mm 0.00 in0.0 mm
01:00 AM 29.7°F-1.3°C 15.5°F-9.2°C 55% Calm Calm -- 30.29 in1025.7 mb 0.00 in0.0 mm 0.00 in0.0 mm 0.00 in0.0 mm
12:55 AM 29.7°F-1.3°C 14.2°F-9.9°C 52% Calm Calm -- 30.29 in1025.7 mb 0.00 in0.0 mm 0.00 in0.0 mm 0.00 in0.0 mm
12:50 AM 29.8°F-1.2°C 14.4°F-9.8°C 52% Calm Calm -- 30.29 in1025.7 mb 0.00 in0.0 mm 0.00 in0.0 mm 0.00 in0.0 mm
12:45 AM 30.0°F-1.1°C 14.5°F-9.7°C 52% Calm Calm -- 30.29 in1025.7 mb 0.00 in0.0 mm 0.00 in0.0 mm 0.00 in0.0 mm
12:40 AM 30.0°F-1.1°C 14.5°F-9.7°C 52% Calm Calm -- 30.29 in1025.7 mb 0.00 in0.0 mm 0.00 in0.0 mm 0.00 in0.0 mm
12:35 AM 30.0°F-1.1°C 13.7°F-10.2°C 50% Calm Calm -- 30.29 in1025.7 mb 0.00 in0.0 mm 0.00 in0.0 mm 0.00 in0.0 mm
12:30 AM 30.0°F-1.1°C 13.7°F-10.2°C 50% Calm Calm 2.8 mph4.5 kmh 30.29 in1025.7 mb 0.00 in0.0 mm 0.00 in0.0 mm 0.00 in0.0 mm
12:25 AM 30.2°F-1.0°C 13.8°F-10.1°C 50% Calm Calm -- 30.29 in1025.7 mb 0.00 in0.0 mm 0.00 in0.0 mm 0.00 in0.0 mm
12:20 AM 30.6°F-0.8°C 14.2°F-9.9°C 50% Calm Calm -- 30.29 in1025.7 mb 0.00 in0.0 mm 0.00 in0.0 mm 0.00 in0.0 mm
12:15 AM 30.7°F-0.7°C 14.3°F-9.8°C 50% 3.4 mph WSW5.5 kmh WSW 3.4 mph5.5 kmh 30.29 in1025.7 mb 0.00 in0.0 mm 0.00 in0.0 mm 0.00 in0.0 mm
12:10 AM 31.1°F-0.5°C 14.7°F-9.6°C 50% Calm Calm -- 30.29 in1025.7 mb 0.00 in0.0 mm 0.00 in0.0 mm 0.00 in0.0 mm
12:05 AM 31.5°F-0.3°C 15.0°F-9.4°C 50% Calm Calm -- 30.29 in1025.7 mb 0.00 in0.0 mm 0.00 in0.0 mm 0.00 in0.0 mm
12:00 AM 31.6°F-0.2°C 15.2°F-9.3°C 50% Calm Calm -- 30.29 in1025.7 mb 0.00 in0.0 mm 0.00 in0.0 mm 0.00 in0.0 mm